Terminal Aerodrome Forecast
Issued by NWS

Home | Current Version | Previous Version | Text Only | Print | Product List | Glossary On
Versions: 1 2 3 4 5 6 7 8 9 10 11 12 13 14 15 16
000
FTUS45 KBOI 181120
TAFJER
TAF
KJER 181120Z 1812/1912 05021G30KT P6SM SCT090 OVC200
     FM182100 04022KT 6SM -FZRA SCT030 OVC060
     FM190500 05022KT 2SM -SN BR OVC025=

USA.gov is the U.S. government's official web portal to all federal, state and local government web resources and services.